Currently 51°F in Simi Valley, California, USA
51°F
51°F / 46°F
6 mph S
0.00"
Thursday, January 28, 2021 8:22 AM PST

Simi Valley, California Weather Summary
Last 36 Hours

Temperature Winds Hourly Humidity Dewpoint
Time Report Norm Report Norm Max Gusts Precip. Rpt. Norm Rpt. Norm Pressure
1,2Thu 08:22 AM  50.6°F  55°F  6 mph S  4 mph  11 mph  0.00"  58%  56%  36°F  39°F  29.94"
Thu 08:00 AM  49.1°F  54°F  2 mph S  4 mph  6 mph  0.00"  60%  57%  35°F  38°F  29.94"
Thu 07:00 AM  47.6°F  53°F  calm  4 mph  8 mph  0.00"  62%  57%  35°F  38°F  29.95"
Thu 06:00 AM  48.4°F  53°F  5 mph S  4 mph  8 mph  0.00"  67%  57%  37°F  38°F  29.93"
Thu 05:00 AM  46.2°F  53°F  4 mph S  4 mph  7 mph  0.00"  75%  57%  38°F  37°F  29.95"
3Thu 04:07 AM  45.7°F  53°F  3 mph E  4 mph  4 mph  ----  76%  57%  38°F  38°F  29.96"
Thu 04:00 AM  45.9°F  53°F  calm  4 mph  4 mph  0.00"  75%  57%  38°F  38°F  29.96"
Thu 03:00 AM  47.8°F  53°F  calm  4 mph  7 mph  0.00"  74%  56%  40°F  38°F  29.96"
Thu 02:00 AM  49.1°F  54°F  2 mph S  4 mph  5 mph  0.00"  74%  56%  41°F  38°F  29.97"
Thu 01:00 AM  49.7°F  54°F  2 mph S  4 mph  7 mph  0.00"  74%  56%  41°F  38°F  29.98"
Thu 12:00 AM  50.1°F  54°F  2 mph S  4 mph  11 mph  0.00"  73%  56%  41°F  38°F  29.99"
Wed 11:00 PM  49.9°F  55°F  4 mph SW  4 mph  12 mph  0.00"  73%  56%  41°F  38°F  29.99"
Wed 10:00 PM  50.3°F  55°F  4 mph S  4 mph  10 mph  0.00"  73%  56%  41°F  39°F  29.98"
Wed 09:00 PM  50.9°F  56°F  calm  4 mph  10 mph  0.00"  70%  54%  41°F  39°F  29.99"
Wed 08:00 PM  51.3°F  57°F  2 mph S  4 mph  7 mph  0.00"  69%  53%  41°F  39°F  30.00"
Wed 07:00 PM  51.8°F  59°F  1 mph SW  4 mph  10 mph  0.00"  67%  52%  41°F  40°F  30.00"
Wed 06:00 PM  52.0°F  61°F  7 mph SW  4 mph  11 mph  0.00"  67%  49%  41°F  41°F  30.00"
Wed 05:00 PM  53.2°F  63°F  8 mph NW  5 mph  9 mph  0.00"  66%  46%  41°F  41°F  29.99"
Wed 04:00 PM  54.0°F  66°F  3 mph S  5 mph  15 mph  0.00"  64%  42%  42°F  41°F  29.98"
Wed 03:00 PM  54.2°F  67°F  6 mph SW  6 mph  16 mph  0.00"  65%  40%  42°F  41°F  30.00"
Wed 02:00 PM  53.5°F  68°F  6 mph SW  6 mph  18 mph  0.00"  64%  39%  41°F  41°F  30.01"
Wed 01:00 PM  54.1°F  67°F  8 mph SW  6 mph  17 mph  0.00"  62%  39%  41°F  40°F  30.04"
Wed 12:00 PM  52.0°F  66°F  2 mph SW  6 mph  23 mph  0.00"  66%  41%  40°F  41°F  30.08"
Wed 11:00 AM  50.2°F  64°F  10 mph S  6 mph  18 mph  0.00"  66%  44%  39°F  41°F  30.10"
Wed 10:00 AM  49.5°F  62°F  11 mph S  5 mph  21 mph  0.00"  66%  48%  38°F  41°F  30.11"
Wed 09:00 AM  48.1°F  58°F  8 mph S  5 mph  17 mph  0.00"  69%  53%  38°F  40°F  30.10"
Wed 08:00 AM  46.2°F  54°F  8 mph S  4 mph  14 mph  0.00"  72%  57%  37°F  38°F  30.09"
Wed 07:00 AM  45.6°F  53°F  5 mph S  4 mph  9 mph  0.00"  73%  57%  37°F  37°F  30.09"
Wed 06:00 AM  45.4°F  53°F  2 mph S  4 mph  9 mph  0.00"  72%  57%  37°F  37°F  30.09"
Wed 05:00 AM  45.3°F  53°F  2 mph SW  4 mph  9 mph  0.00"  71%  56%  36°F  37°F  30.08"
Wed 04:00 AM  45.4°F  53°F  5 mph S  5 mph  12 mph  0.00"  69%  56%  35°F  38°F  30.09"
Wed 03:00 AM  45.2°F  53°F  1 mph S  4 mph  8 mph  0.00"  71%  56%  36°F  37°F  30.10"
Wed 02:00 AM  45.5°F  54°F  3 mph SW  4 mph  9 mph  0.00"  70%  55%  36°F  38°F  30.11"
Wed 01:00 AM  44.6°F  54°F  1 mph S  4 mph  10 mph  0.00"  69%  55%  35°F  38°F  30.09"
Wed 12:00 AM  42.9°F  55°F  2 mph NE  4 mph  none  0.00"  68%  55%  32°F  38°F  30.10"
Tue 11:00 PM  41.8°F  55°F  calm  4 mph  4 mph  0.00"  66%  54%  31°F  38°F  30.09"
Tue 10:00 PM  41.7°F  55°F  2 mph NE  4 mph  6 mph  0.00"  64%  54%  30°F  38°F  30.07"
Tue 09:00 PM  42.6°F  56°F  calm  4 mph  5 mph  0.00"  61%  53%  30°F  39°F  30.06"

  1. Current weather data. No green row appears if the current weather data is also the high or low for the current day.
  2. High temperature for the current day.
  3. Low temperature for the current day.

The Simi Valley, California weather pages are a service of WeatherCurrents.
Copyright ©2021  WeatherCurrents. All rights reserved. - Submit questions and comments - Privacy Policy

This page automatically refreshes every 10 minutes.